sensor_id;sensor_type;location;lat;lon;timestamp;temperature;humidity
53498;DHT22;39382;47.168;16.008;2023-11-19T00:00:25;2.50;99.90
53498;DHT22;39382;47.168;16.008;2023-11-19T00:02:51;2.40;99.90
53498;DHT22;39382;47.168;16.008;2023-11-19T00:05:17;2.40;99.90
53498;DHT22;39382;47.168;16.008;2023-11-19T00:07:42;2.40;99.90
53498;DHT22;39382;47.168;16.008;2023-11-19T00:12:39;2.40;99.90
53498;DHT22;39382;47.168;16.008;2023-11-19T00:15:06;2.40;99.90
53498;DHT22;39382;47.168;16.008;2023-11-19T00:17:39;2.40;99.90
53498;DHT22;39382;47.168;16.008;2023-11-19T00:20:06;2.40;99.90
53498;DHT22;39382;47.168;16.008;2023-11-19T00:22:33;2.50;99.90
53498;DHT22;39382;47.168;16.008;2023-11-19T00:24:59;2.40;99.90
53498;DHT22;39382;47.168;16.008;2023-11-19T00:27:25;2.40;99.90
53498;DHT22;39382;47.168;16.008;2023-11-19T00:29:51;2.30;99.90
53498;DHT22;39382;47.168;16.008;2023-11-19T00:32:16;2.30;99.90
53498;DHT22;39382;47.168;16.008;2023-11-19T00:34:45;2.30;99.90
53498;DHT22;39382;47.168;16.008;2023-11-19T00:37:16;2.30;99.90
53498;DHT22;39382;47.168;16.008;2023-11-19T00:39:42;2.40;99.90
53498;DHT22;39382;47.168;16.008;2023-11-19T00:42:11;2.40;99.90
53498;DHT22;39382;47.168;16.008;2023-11-19T00:44:37;2.50;99.90
53498;DHT22;39382;47.168;16.008;2023-11-19T00:47:03;2.50;99.90
53498;DHT22;39382;47.168;16.008;2023-11-19T00:49:28;2.60;99.90
53498;DHT22;39382;47.168;16.008;2023-11-19T00:54:28;2.80;99.90
53498;DHT22;39382;47.168;16.008;2023-11-19T00:56:54;2.80;99.90
53498;DHT22;39382;47.168;16.008;2023-11-19T00:59:20;2.80;99.90
53498;DHT22;39382;47.168;16.008;2023-11-19T01:01:46;2.80;99.90
53498;DHT22;39382;47.168;16.008;2023-11-19T01:04:16;2.80;99.90
53498;DHT22;39382;47.168;16.008;2023-11-19T01:06:42;2.90;99.90
53498;DHT22;39382;47.168;16.008;2023-11-19T01:09:08;2.90;99.90
53498;DHT22;39382;47.168;16.008;2023-11-19T01:11:34;3.00;99.90
53498;DHT22;39382;47.168;16.008;2023-11-19T01:14:00;3.10;99.90
53498;DHT22;39382;47.168;16.008;2023-11-19T01:16:26;3.10;99.90
53498;DHT22;39382;47.168;16.008;2023-11-19T01:18:52;3.10;99.90
53498;DHT22;39382;47.168;16.008;2023-11-19T01:21:18;3.10;99.90
53498;DHT22;39382;47.168;16.008;2023-11-19T01:23:44;3.30;99.90
53498;DHT22;39382;47.168;16.008;2023-11-19T01:26:10;3.30;99.90
53498;DHT22;39382;47.168;16.008;2023-11-19T01:28:36;3.30;99.90
53498;DHT22;39382;47.168;16.008;2023-11-19T01:31:02;3.20;99.90
53498;DHT22;39382;47.168;16.008;2023-11-19T01:33:28;3.20;99.90
53498;DHT22;39382;47.168;16.008;2023-11-19T01:35:55;3.20;99.90
53498;DHT22;39382;47.168;16.008;2023-11-19T01:38:22;3.20;99.90
53498;DHT22;39382;47.168;16.008;2023-11-19T01:40:48;3.20;99.90
53498;DHT22;39382;47.168;16.008;2023-11-19T01:43:31;3.20;99.90
53498;DHT22;39382;47.168;16.008;2023-11-19T01:45:58;3.10;99.90
53498;DHT22;39382;47.168;16.008;2023-11-19T01:48:24;3.10;99.90
53498;DHT22;39382;47.168;16.008;2023-11-19T01:50:50;3.10;99.90
53498;DHT22;39382;47.168;16.008;2023-11-19T01:53:17;3.10;99.90
53498;DHT22;39382;47.168;16.008;2023-11-19T01:55:43;3.50;99.90
53498;DHT22;39382;47.168;16.008;2023-11-19T01:58:09;3.10;99.90
53498;DHT22;39382;47.168;16.008;2023-11-19T02:00:35;3.10;99.90
53498;DHT22;39382;47.168;16.008;2023-11-19T02:03:00;3.10;99.90
53498;DHT22;39382;47.168;16.008;2023-11-19T02:05:26;3.00;99.90
53498;DHT22;39382;47.168;16.008;2023-11-19T02:07:52;3.00;99.90
53498;DHT22;39382;47.168;16.008;2023-11-19T02:10:18;3.40;99.90
53498;DHT22;39382;47.168;16.008;2023-11-19T02:12:44;3.00;99.90
53498;DHT22;39382;47.168;16.008;2023-11-19T02:15:11;3.00;99.90
53498;DHT22;39382;47.168;16.008;2023-11-19T02:17:37;3.20;99.90
53498;DHT22;39382;47.168;16.008;2023-11-19T02:20:06;3.00;99.90
53498;DHT22;39382;47.168;16.008;2023-11-19T02:22:34;2.90;99.90
53498;DHT22;39382;47.168;16.008;2023-11-19T02:25:04;2.90;99.90
53498;DHT22;39382;47.168;16.008;2023-11-19T02:27:55;2.90;99.90
53498;DHT22;39382;47.168;16.008;2023-11-19T02:30:22;3.00;99.90
53498;DHT22;39382;47.168;16.008;2023-11-19T02:32:55;2.80;99.90
53498;DHT22;39382;47.168;16.008;2023-11-19T02:35:26;2.70;99.90
53498;DHT22;39382;47.168;16.008;2023-11-19T02:37:52;2.70;99.90
53498;DHT22;39382;47.168;16.008;2023-11-19T02:40:18;2.60;99.90
53498;DHT22;39382;47.168;16.008;2023-11-19T02:42:43;2.60;99.90
53498;DHT22;39382;47.168;16.008;2023-11-19T02:45:09;2.50;99.90
53498;DHT22;39382;47.168;16.008;2023-11-19T02:47:40;2.50;99.90
53498;DHT22;39382;47.168;16.008;2023-11-19T02:50:06;2.50;99.90
53498;DHT22;39382;47.168;16.008;2023-11-19T02:52:39;2.40;99.90
53498;DHT22;39382;47.168;16.008;2023-11-19T02:55:05;2.40;99.90
53498;DHT22;39382;47.168;16.008;2023-11-19T02:57:35;2.40;99.90
53498;DHT22;39382;47.168;16.008;2023-11-19T03:00:00;2.80;99.90
53498;DHT22;39382;47.168;16.008;2023-11-19T03:02:26;2.40;99.90
53498;DHT22;39382;47.168;16.008;2023-11-19T03:04:59;2.40;99.90
53498;DHT22;39382;47.168;16.008;2023-11-19T03:07:25;2.40;99.90
53498;DHT22;39382;47.168;16.008;2023-11-19T03:09:50;2.40;99.90
53498;DHT22;39382;47.168;16.008;2023-11-19T03:12:16;2.40;99.90
53498;DHT22;39382;47.168;16.008;2023-11-19T03:14:42;2.40;99.90
53498;DHT22;39382;47.168;16.008;2023-11-19T03:17:07;2.40;99.90
53498;DHT22;39382;47.168;16.008;2023-11-19T03:19:35;2.40;99.90
53498;DHT22;39382;47.168;16.008;2023-11-19T03:22:01;2.30;99.90
53498;DHT22;39382;47.168;16.008;2023-11-19T03:24:27;2.30;99.90
53498;DHT22;39382;47.168;16.008;2023-11-19T03:26:53;2.30;99.90
53498;DHT22;39382;47.168;16.008;2023-11-19T03:29:18;2.60;99.90
53498;DHT22;39382;47.168;16.008;2023-11-19T03:31:44;2.30;99.90
53498;DHT22;39382;47.168;16.008;2023-11-19T03:34:10;2.30;99.90
53498;DHT22;39382;47.168;16.008;2023-11-19T03:36:36;2.70;99.90
53498;DHT22;39382;47.168;16.008;2023-11-19T03:39:01;2.40;99.90
53498;DHT22;39382;47.168;16.008;2023-11-19T03:41:28;2.40;99.90
53498;DHT22;39382;47.168;16.008;2023-11-19T03:43:54;2.40;99.90
53498;DHT22;39382;47.168;16.008;2023-11-19T03:46:20;2.40;99.90
53498;DHT22;39382;47.168;16.008;2023-11-19T03:48:49;3.10;99.90
53498;DHT22;39382;47.168;16.008;2023-11-19T03:51:16;2.50;99.90
53498;DHT22;39382;47.168;16.008;2023-11-19T03:53:45;2.40;99.90
53498;DHT22;39382;47.168;16.008;2023-11-19T03:56:11;2.40;99.90
53498;DHT22;39382;47.168;16.008;2023-11-19T03:58:37;2.40;99.90
53498;DHT22;39382;47.168;16.008;2023-11-19T04:01:13;2.40;99.90
53498;DHT22;39382;47.168;16.008;2023-11-19T04:03:39;2.40;99.90
53498;DHT22;39382;47.168;16.008;2023-11-19T04:06:04;2.40;99.90
53498;DHT22;39382;47.168;16.008;2023-11-19T04:08:30;2.40;99.90
53498;DHT22;39382;47.168;16.008;2023-11-19T04:10:56;2.40;99.90
53498;DHT22;39382;47.168;16.008;2023-11-19T04:13:21;2.40;99.90
53498;DHT22;39382;47.168;16.008;2023-11-19T04:15:50;2.50;99.90
53498;DHT22;39382;47.168;16.008;2023-11-19T04:18:15;2.50;99.90
53498;DHT22;39382;47.168;16.008;2023-11-19T04:20:41;2.50;99.90
53498;DHT22;39382;47.168;16.008;2023-11-19T04:23:08;2.50;99.90
53498;DHT22;39382;47.168;16.008;2023-11-19T04:25:35;2.50;99.90
53498;DHT22;39382;47.168;16.008;2023-11-19T04:28:01;2.40;99.90
53498;DHT22;39382;47.168;16.008;2023-11-19T04:30:27;2.60;99.90
53498;DHT22;39382;47.168;16.008;2023-11-19T04:32:53;2.60;99.90
53498;DHT22;39382;47.168;16.008;2023-11-19T04:35:19;2.50;99.90
53498;DHT22;39382;47.168;16.008;2023-11-19T04:37:45;2.50;99.90
53498;DHT22;39382;47.168;16.008;2023-11-19T04:40:11;2.50;99.90
53498;DHT22;39382;47.168;16.008;2023-11-19T04:42:37;2.40;99.90
53498;DHT22;39382;47.168;16.008;2023-11-19T04:45:06;2.40;99.90
53498;DHT22;39382;47.168;16.008;2023-11-19T04:47:33;2.40;99.90
53498;DHT22;39382;47.168;16.008;2023-11-19T04:49:59;2.50;99.90
53498;DHT22;39382;47.168;16.008;2023-11-19T04:52:25;2.60;99.90
53498;DHT22;39382;47.168;16.008;2023-11-19T04:54:51;2.60;99.90
53498;DHT22;39382;47.168;16.008;2023-11-19T04:57:17;2.50;99.90
53498;DHT22;39382;47.168;16.008;2023-11-19T04:59:42;2.60;99.90
53498;DHT22;39382;47.168;16.008;2023-11-19T05:02:09;2.60;99.90
53498;DHT22;39382;47.168;16.008;2023-11-19T05:04:35;2.60;99.90
53498;DHT22;39382;47.168;16.008;2023-11-19T05:07:00;2.50;99.90
53498;DHT22;39382;47.168;16.008;2023-11-19T05:09:26;2.60;99.90
53498;DHT22;39382;47.168;16.008;2023-11-19T05:11:52;2.60;99.90
53498;DHT22;39382;47.168;16.008;2023-11-19T05:14:18;2.60;99.90
53498;DHT22;39382;47.168;16.008;2023-11-19T05:16:47;2.60;99.90
53498;DHT22;39382;47.168;16.008;2023-11-19T05:19:12;2.60;99.90
53498;DHT22;39382;47.168;16.008;2023-11-19T05:21:42;2.60;99.90
53498;DHT22;39382;47.168;16.008;2023-11-19T05:24:08;2.60;99.90
53498;DHT22;39382;47.168;16.008;2023-11-19T05:26:33;2.80;99.90
53498;DHT22;39382;47.168;16.008;2023-11-19T05:28:59;2.60;99.90
53498;DHT22;39382;47.168;16.008;2023-11-19T05:31:25;2.60;99.90
53498;DHT22;39382;47.168;16.008;2023-11-19T05:33:50;2.70;99.90
53498;DHT22;39382;47.168;16.008;2023-11-19T05:36:16;2.70;99.90
53498;DHT22;39382;47.168;16.008;2023-11-19T05:38:42;2.70;99.90
53498;DHT22;39382;47.168;16.008;2023-11-19T05:41:08;2.70;99.90
53498;DHT22;39382;47.168;16.008;2023-11-19T05:43:33;2.80;99.90
53498;DHT22;39382;47.168;16.008;2023-11-19T05:45:59;2.70;99.90
53498;DHT22;39382;47.168;16.008;2023-11-19T05:48:26;2.80;99.90
53498;DHT22;39382;47.168;16.008;2023-11-19T05:50:52;2.80;99.90
53498;DHT22;39382;47.168;16.008;2023-11-19T05:53:19;2.70;99.90
53498;DHT22;39382;47.168;16.008;2023-11-19T05:55:44;2.80;99.90
53498;DHT22;39382;47.168;16.008;2023-11-19T05:58:14;2.80;99.90
53498;DHT22;39382;47.168;16.008;2023-11-19T06:00:40;2.70;99.90
53498;DHT22;39382;47.168;16.008;2023-11-19T06:03:09;2.80;99.90
53498;DHT22;39382;47.168;16.008;2023-11-19T06:05:34;3.90;99.90
53498;DHT22;39382;47.168;16.008;2023-11-19T06:08:00;3.80;99.90
53498;DHT22;39382;47.168;16.008;2023-11-19T06:10:26;3.60;99.90
53498;DHT22;39382;47.168;16.008;2023-11-19T06:12:59;3.50;99.90
53498;DHT22;39382;47.168;16.008;2023-11-19T06:15:28;3.30;99.90
53498;DHT22;39382;47.168;16.008;2023-11-19T06:17:54;3.20;99.90
53498;DHT22;39382;47.168;16.008;2023-11-19T06:20:26;3.10;99.90
53498;DHT22;39382;47.168;16.008;2023-11-19T06:22:53;3.00;99.90
53498;DHT22;39382;47.168;16.008;2023-11-19T06:25:19;2.90;99.90
53498;DHT22;39382;47.168;16.008;2023-11-19T06:27:45;2.90;99.90
53498;DHT22;39382;47.168;16.008;2023-11-19T06:30:11;2.90;99.90
53498;DHT22;39382;47.168;16.008;2023-11-19T06:32:37;2.80;99.90
53498;DHT22;39382;47.168;16.008;2023-11-19T06:35:03;2.80;99.90
53498;DHT22;39382;47.168;16.008;2023-11-19T06:37:30;2.70;99.90
53498;DHT22;39382;47.168;16.008;2023-11-19T06:39:56;2.70;99.90
53498;DHT22;39382;47.168;16.008;2023-11-19T06:42:21;3.10;99.90
53498;DHT22;39382;47.168;16.008;2023-11-19T06:44:47;2.80;99.90
53498;DHT22;39382;47.168;16.008;2023-11-19T06:47:12;2.90;99.90
53498;DHT22;39382;47.168;16.008;2023-11-19T06:49:38;2.90;99.90
53498;DHT22;39382;47.168;16.008;2023-11-19T06:52:04;2.90;99.90
53498;DHT22;39382;47.168;16.008;2023-11-19T06:54:30;2.80;99.90
53498;DHT22;39382;47.168;16.008;2023-11-19T06:56:56;2.80;99.90
53498;DHT22;39382;47.168;16.008;2023-11-19T06:59:23;2.80;99.90
53498;DHT22;39382;47.168;16.008;2023-11-19T07:01:48;2.90;99.90
53498;DHT22;39382;47.168;16.008;2023-11-19T07:04:14;2.90;99.90
53498;DHT22;39382;47.168;16.008;2023-11-19T07:06:40;2.90;99.90
53498;DHT22;39382;47.168;16.008;2023-11-19T07:09:08;2.90;99.90
53498;DHT22;39382;47.168;16.008;2023-11-19T07:11:41;3.00;99.90
53498;DHT22;39382;47.168;16.008;2023-11-19T07:14:07;3.00;99.90
53498;DHT22;39382;47.168;16.008;2023-11-19T07:16:34;3.00;99.90
53498;DHT22;39382;47.168;16.008;2023-11-19T07:19:00;3.00;99.90
53498;DHT22;39382;47.168;16.008;2023-11-19T07:21:26;3.10;99.90
53498;DHT22;39382;47.168;16.008;2023-11-19T07:23:54;3.20;99.90
53498;DHT22;39382;47.168;16.008;2023-11-19T07:26:19;3.20;99.90
53498;DHT22;39382;47.168;16.008;2023-11-19T07:28:45;3.20;99.90
53498;DHT22;39382;47.168;16.008;2023-11-19T07:31:11;3.30;99.90
53498;DHT22;39382;47.168;16.008;2023-11-19T07:33:39;3.20;99.90
53498;DHT22;39382;47.168;16.008;2023-11-19T07:36:11;3.40;99.90
53498;DHT22;39382;47.168;16.008;2023-11-19T07:38:37;3.30;99.90
53498;DHT22;39382;47.168;16.008;2023-11-19T07:41:05;3.40;99.90
53498;DHT22;39382;47.168;16.008;2023-11-19T07:43:31;3.40;99.90
53498;DHT22;39382;47.168;16.008;2023-11-19T07:45:56;3.40;99.90
53498;DHT22;39382;47.168;16.008;2023-11-19T07:48:25;3.40;99.90
53498;DHT22;39382;47.168;16.008;2023-11-19T07:50:52;3.40;99.90
53498;DHT22;39382;47.168;16.008;2023-11-19T07:53:19;4.30;99.90
53498;DHT22;39382;47.168;16.008;2023-11-19T07:55:45;3.40;99.90
53498;DHT22;39382;47.168;16.008;2023-11-19T07:58:11;5.20;99.90
53498;DHT22;39382;47.168;16.008;2023-11-19T08:00:37;5.40;99.90
53498;DHT22;39382;47.168;16.008;2023-11-19T08:03:03;4.70;99.90
53498;DHT22;39382;47.168;16.008;2023-11-19T08:05:30;5.10;99.90
53498;DHT22;39382;47.168;16.008;2023-11-19T08:07:55;4.40;99.90
53498;DHT22;39382;47.168;16.008;2023-11-19T08:10:21;4.60;99.90
53498;DHT22;39382;47.168;16.008;2023-11-19T08:12:47;4.70;99.90
53498;DHT22;39382;47.168;16.008;2023-11-19T08:15:13;3.90;99.90
53498;DHT22;39382;47.168;16.008;2023-11-19T08:17:39;3.90;99.90
53498;DHT22;39382;47.168;16.008;2023-11-19T08:20:05;3.80;99.90
53498;DHT22;39382;47.168;16.008;2023-11-19T08:22:36;3.80;99.90
53498;DHT22;39382;47.168;16.008;2023-11-19T08:25:01;5.40;99.90
53498;DHT22;39382;47.168;16.008;2023-11-19T08:27:27;4.90;99.90
53498;DHT22;39382;47.168;16.008;2023-11-19T08:29:54;4.70;99.90
53498;DHT22;39382;47.168;16.008;2023-11-19T08:32:25;4.60;99.90
53498;DHT22;39382;47.168;16.008;2023-11-19T08:34:51;4.40;99.90
53498;DHT22;39382;47.168;16.008;2023-11-19T08:37:16;4.50;99.90
53498;DHT22;39382;47.168;16.008;2023-11-19T08:39:49;4.60;99.90
53498;DHT22;39382;47.168;16.008;2023-11-19T08:42:15;4.40;99.90
53498;DHT22;39382;47.168;16.008;2023-11-19T08:44:41;4.40;99.90
53498;DHT22;39382;47.168;16.008;2023-11-19T08:47:12;4.60;99.90
53498;DHT22;39382;47.168;16.008;2023-11-19T08:49:38;4.90;99.90
53498;DHT22;39382;47.168;16.008;2023-11-19T08:52:05;5.00;99.90
53498;DHT22;39382;47.168;16.008;2023-11-19T08:54:32;5.10;99.90
53498;DHT22;39382;47.168;16.008;2023-11-19T08:56:58;5.50;99.90
53498;DHT22;39382;47.168;16.008;2023-11-19T08:59:25;5.30;99.90
53498;DHT22;39382;47.168;16.008;2023-11-19T09:01:50;5.10;99.90
53498;DHT22;39382;47.168;16.008;2023-11-19T09:04:16;5.50;99.90
53498;DHT22;39382;47.168;16.008;2023-11-19T09:06:42;5.10;99.90
53498;DHT22;39382;47.168;16.008;2023-11-19T09:09:08;5.20;99.90
53498;DHT22;39382;47.168;16.008;2023-11-19T09:11:35;6.10;99.90
53498;DHT22;39382;47.168;16.008;2023-11-19T09:14:00;5.50;99.90
53498;DHT22;39382;47.168;16.008;2023-11-19T09:16:26;5.30;99.90
53498;DHT22;39382;47.168;16.008;2023-11-19T09:18:51;5.00;99.90
53498;DHT22;39382;47.168;16.008;2023-11-19T09:21:17;5.10;99.90
53498;DHT22;39382;47.168;16.008;2023-11-19T09:23:43;5.10;99.90
53498;DHT22;39382;47.168;16.008;2023-11-19T09:26:09;5.20;99.90
53498;DHT22;39382;47.168;16.008;2023-11-19T09:28:37;5.20;99.90
53498;DHT22;39382;47.168;16.008;2023-11-19T09:31:03;5.20;99.90
53498;DHT22;39382;47.168;16.008;2023-11-19T09:33:30;5.30;99.90
53498;DHT22;39382;47.168;16.008;2023-11-19T09:35:56;5.70;99.90
53498;DHT22;39382;47.168;16.008;2023-11-19T09:38:21;5.50;99.90
53498;DHT22;39382;47.168;16.008;2023-11-19T09:40:47;5.40;99.90
53498;DHT22;39382;47.168;16.008;2023-11-19T09:43:14;5.50;99.90
53498;DHT22;39382;47.168;16.008;2023-11-19T09:45:50;5.50;99.90
53498;DHT22;39382;47.168;16.008;2023-11-19T09:48:19;5.70;99.90
53498;DHT22;39382;47.168;16.008;2023-11-19T09:50:48;5.70;99.90
53498;DHT22;39382;47.168;16.008;2023-11-19T09:53:15;5.90;99.90
53498;DHT22;39382;47.168;16.008;2023-11-19T09:55:41;5.90;99.90
53498;DHT22;39382;47.168;16.008;2023-11-19T09:58:07;6.10;99.90
53498;DHT22;39382;47.168;16.008;2023-11-19T10:00:33;6.30;99.90
53498;DHT22;39382;47.168;16.008;2023-11-19T10:03:00;6.00;99.90
53498;DHT22;39382;47.168;16.008;2023-11-19T10:05:26;6.20;99.90
53498;DHT22;39382;47.168;16.008;2023-11-19T10:07:54;6.20;99.90
53498;DHT22;39382;47.168;16.008;2023-11-19T10:10:21;6.20;99.90
53498;DHT22;39382;47.168;16.008;2023-11-19T10:12:47;7.00;99.90
53498;DHT22;39382;47.168;16.008;2023-11-19T10:15:20;6.50;99.90
53498;DHT22;39382;47.168;16.008;2023-11-19T10:17:46;6.60;99.90
53498;DHT22;39382;47.168;16.008;2023-11-19T10:20:12;6.80;99.90
53498;DHT22;39382;47.168;16.008;2023-11-19T10:22:37;7.00;99.90
53498;DHT22;39382;47.168;16.008;2023-11-19T10:25:04;7.00;99.90
53498;DHT22;39382;47.168;16.008;2023-11-19T10:27:30;7.00;99.90
53498;DHT22;39382;47.168;16.008;2023-11-19T10:29:59;7.00;99.90
53498;DHT22;39382;47.168;16.008;2023-11-19T10:32:25;7.00;99.90
53498;DHT22;39382;47.168;16.008;2023-11-19T10:34:51;7.00;99.90
53498;DHT22;39382;47.168;16.008;2023-11-19T10:37:29;6.90;99.90
53498;DHT22;39382;47.168;16.008;2023-11-19T10:39:58;6.90;99.90
53498;DHT22;39382;47.168;16.008;2023-11-19T10:42:23;7.00;99.90
53498;DHT22;39382;47.168;16.008;2023-11-19T10:44:49;7.10;99.90
53498;DHT22;39382;47.168;16.008;2023-11-19T10:47:15;7.10;99.90
53498;DHT22;39382;47.168;16.008;2023-11-19T10:49:44;7.10;99.90
53498;DHT22;39382;47.168;16.008;2023-11-19T10:52:12;7.10;99.90
53498;DHT22;39382;47.168;16.008;2023-11-19T10:54:43;7.10;99.90
53498;DHT22;39382;47.168;16.008;2023-11-19T10:57:11;7.30;99.90
53498;DHT22;39382;47.168;16.008;2023-11-19T10:59:38;7.50;99.90
53498;DHT22;39382;47.168;16.008;2023-11-19T11:02:09;7.60;99.90
53498;DHT22;39382;47.168;16.008;2023-11-19T11:04:39;7.70;99.90
53498;DHT22;39382;47.168;16.008;2023-11-19T11:07:05;7.80;99.90
53498;DHT22;39382;47.168;16.008;2023-11-19T11:09:32;7.80;99.90
53498;DHT22;39382;47.168;16.008;2023-11-19T11:11:59;7.60;99.90
53498;DHT22;39382;47.168;16.008;2023-11-19T11:14:25;7.80;99.90
53498;DHT22;39382;47.168;16.008;2023-11-19T11:16:53;7.90;99.90
53498;DHT22;39382;47.168;16.008;2023-11-19T11:19:19;8.10;99.90
53498;DHT22;39382;47.168;16.008;2023-11-19T11:21:51;8.30;99.90
53498;DHT22;39382;47.168;16.008;2023-11-19T11:24:47;8.30;99.90
53498;DHT22;39382;47.168;16.008;2023-11-19T11:27:46;8.20;99.90
53498;DHT22;39382;47.168;16.008;2023-11-19T11:32:54;8.50;99.90
53498;DHT22;39382;47.168;16.008;2023-11-19T11:35:53;8.80;99.90
53498;DHT22;39382;47.168;16.008;2023-11-19T11:38:23;9.00;99.90
53498;DHT22;39382;47.168;16.008;2023-11-19T11:41:18;9.10;98.20
53498;DHT22;39382;47.168;16.008;2023-11-19T11:43:51;9.00;98.00
53498;DHT22;39382;47.168;16.008;2023-11-19T11:49:05;9.10;97.80
53498;DHT22;39382;47.168;16.008;2023-11-19T11:54:31;9.30;97.10
53498;DHT22;39382;47.168;16.008;2023-11-19T11:57:03;9.40;96.00
53498;DHT22;39382;47.168;16.008;2023-11-19T11:59:37;9.40;96.10
53498;DHT22;39382;47.168;16.008;2023-11-19T12:02:03;9.50;96.90
53498;DHT22;39382;47.168;16.008;2023-11-19T12:04:29;9.60;96.70
53498;DHT22;39382;47.168;16.008;2023-11-19T12:07:13;9.70;96.00
53498;DHT22;39382;47.168;16.008;2023-11-19T12:09:47;9.90;95.30
53498;DHT22;39382;47.168;16.008;2023-11-19T12:12:25;9.70;94.60
53498;DHT22;39382;47.168;16.008;2023-11-19T12:15:05;9.60;95.10
53498;DHT22;39382;47.168;16.008;2023-11-19T12:17:42;9.50;95.30
53498;DHT22;39382;47.168;16.008;2023-11-19T12:20:10;9.60;95.60
53498;DHT22;39382;47.168;16.008;2023-11-19T12:22:37;9.70;94.80
53498;DHT22;39382;47.168;16.008;2023-11-19T12:25:05;9.70;95.50
53498;DHT22;39382;47.168;16.008;2023-11-19T12:27:32;9.80;95.50
53498;DHT22;39382;47.168;16.008;2023-11-19T12:29:59;9.80;94.50
53498;DHT22;39382;47.168;16.008;2023-11-19T12:32:25;9.90;94.90
53498;DHT22;39382;47.168;16.008;2023-11-19T12:34:50;9.90;95.00
53498;DHT22;39382;47.168;16.008;2023-11-19T12:37:16;10.10;94.80
53498;DHT22;39382;47.168;16.008;2023-11-19T12:39:42;9.90;95.10
53498;DHT22;39382;47.168;16.008;2023-11-19T12:42:08;10.00;95.60
53498;DHT22;39382;47.168;16.008;2023-11-19T12:44:34;10.10;96.00
53498;DHT22;39382;47.168;16.008;2023-11-19T12:47:07;10.00;96.10
53498;DHT22;39382;47.168;16.008;2023-11-19T12:49:33;10.00;96.10
53498;DHT22;39382;47.168;16.008;2023-11-19T12:51:59;10.00;96.30
53498;DHT22;39382;47.168;16.008;2023-11-19T12:54:37;9.90;96.40
53498;DHT22;39382;47.168;16.008;2023-11-19T12:57:04;10.00;96.70
53498;DHT22;39382;47.168;16.008;2023-11-19T12:59:30;10.10;96.60
53498;DHT22;39382;47.168;16.008;2023-11-19T13:02:00;10.10;95.80
53498;DHT22;39382;47.168;16.008;2023-11-19T13:04:30;10.20;95.80
53498;DHT22;39382;47.168;16.008;2023-11-19T13:06:59;10.20;95.80
53498;DHT22;39382;47.168;16.008;2023-11-19T13:09:26;10.30;95.80
53498;DHT22;39382;47.168;16.008;2023-11-19T13:11:52;10.50;95.60
53498;DHT22;39382;47.168;16.008;2023-11-19T13:14:19;10.40;95.30
53498;DHT22;39382;47.168;16.008;2023-11-19T13:16:45;10.40;95.60
53498;DHT22;39382;47.168;16.008;2023-11-19T13:19:12;10.30;96.10
53498;DHT22;39382;47.168;16.008;2023-11-19T13:21:38;10.30;96.50
53498;DHT22;39382;47.168;16.008;2023-11-19T13:24:05;10.30;96.70
53498;DHT22;39382;47.168;16.008;2023-11-19T13:26:31;10.30;96.70
53498;DHT22;39382;47.168;16.008;2023-11-19T13:28:57;10.30;96.70
53498;DHT22;39382;47.168;16.008;2023-11-19T13:31:22;10.20;96.50
53498;DHT22;39382;47.168;16.008;2023-11-19T13:33:49;10.20;96.90
53498;DHT22;39382;47.168;16.008;2023-11-19T13:36:15;10.10;96.60
53498;DHT22;39382;47.168;16.008;2023-11-19T13:38:41;10.10;96.70
53498;DHT22;39382;47.168;16.008;2023-11-19T13:41:07;10.10;96.70
53498;DHT22;39382;47.168;16.008;2023-11-19T13:43:35;10.10;96.50
53498;DHT22;39382;47.168;16.008;2023-11-19T13:46:01;10.00;96.40
53498;DHT22;39382;47.168;16.008;2023-11-19T13:48:27;10.10;98.30
53498;DHT22;39382;47.168;16.008;2023-11-19T13:50:57;10.10;97.70
53498;DHT22;39382;47.168;16.008;2023-11-19T13:53:22;10.10;96.80
53498;DHT22;39382;47.168;16.008;2023-11-19T13:55:49;10.10;96.90
53498;DHT22;39382;47.168;16.008;2023-11-19T13:58:15;10.10;97.00
53498;DHT22;39382;47.168;16.008;2023-11-19T14:00:41;10.00;96.90
53498;DHT22;39382;47.168;16.008;2023-11-19T14:03:09;9.90;96.90
53498;DHT22;39382;47.168;16.008;2023-11-19T14:05:36;9.90;96.60
53498;DHT22;39382;47.168;16.008;2023-11-19T14:08:02;10.00;96.20
53498;DHT22;39382;47.168;16.008;2023-11-19T14:10:28;9.90;96.30
53498;DHT22;39382;47.168;16.008;2023-11-19T14:12:54;9.90;96.80
53498;DHT22;39382;47.168;16.008;2023-11-19T14:15:20;9.90;97.30
53498;DHT22;39382;47.168;16.008;2023-11-19T14:17:45;9.80;97.80
53498;DHT22;39382;47.168;16.008;2023-11-19T14:20:11;9.70;98.10
53498;DHT22;39382;47.168;16.008;2023-11-19T14:22:41;9.60;98.50
53498;DHT22;39382;47.168;16.008;2023-11-19T14:25:09;9.50;98.90
53498;DHT22;39382;47.168;16.008;2023-11-19T14:27:41;9.40;99.50
53498;DHT22;39382;47.168;16.008;2023-11-19T14:30:11;9.20;99.90
53498;DHT22;39382;47.168;16.008;2023-11-19T14:32:38;9.10;99.90
53498;DHT22;39382;47.168;16.008;2023-11-19T14:35:04;8.90;99.90
53498;DHT22;39382;47.168;16.008;2023-11-19T14:37:30;8.70;99.90
53498;DHT22;39382;47.168;16.008;2023-11-19T14:39:59;8.50;99.90
53498;DHT22;39382;47.168;16.008;2023-11-19T14:42:26;8.20;99.90
53498;DHT22;39382;47.168;16.008;2023-11-19T14:44:52;8.10;99.90
53498;DHT22;39382;47.168;16.008;2023-11-19T14:47:21;7.90;99.90
53498;DHT22;39382;47.168;16.008;2023-11-19T14:49:47;7.90;99.90
53498;DHT22;39382;47.168;16.008;2023-11-19T14:52:13;9.50;99.90
53498;DHT22;39382;47.168;16.008;2023-11-19T14:54:39;8.90;99.90
53498;DHT22;39382;47.168;16.008;2023-11-19T14:57:05;8.60;99.90
53498;DHT22;39382;47.168;16.008;2023-11-19T14:59:33;8.20;99.90
53498;DHT22;39382;47.168;16.008;2023-11-19T15:01:59;7.90;99.90
53498;DHT22;39382;47.168;16.008;2023-11-19T15:04:26;7.60;99.90
53498;DHT22;39382;47.168;16.008;2023-11-19T15:06:52;7.30;99.90
53498;DHT22;39382;47.168;16.008;2023-11-19T15:09:17;7.20;99.90
53498;DHT22;39382;47.168;16.008;2023-11-19T15:11:44;7.00;99.90
53498;DHT22;39382;47.168;16.008;2023-11-19T15:14:12;6.80;99.90
53498;DHT22;39382;47.168;16.008;2023-11-19T15:16:40;6.70;99.90
53498;DHT22;39382;47.168;16.008;2023-11-19T15:19:06;6.50;99.90
53498;DHT22;39382;47.168;16.008;2023-11-19T15:21:33;6.40;99.90
53498;DHT22;39382;47.168;16.008;2023-11-19T15:23:59;6.30;99.90
53498;DHT22;39382;47.168;16.008;2023-11-19T15:26:25;6.20;99.90
53498;DHT22;39382;47.168;16.008;2023-11-19T15:28:51;6.10;99.90
53498;DHT22;39382;47.168;16.008;2023-11-19T15:31:22;6.10;99.90
53498;DHT22;39382;47.168;16.008;2023-11-19T15:33:47;6.40;99.90
53498;DHT22;39382;47.168;16.008;2023-11-19T15:36:13;5.90;99.90
53498;DHT22;39382;47.168;16.008;2023-11-19T15:38:40;5.80;99.90
53498;DHT22;39382;47.168;16.008;2023-11-19T15:41:06;5.80;99.90
53498;DHT22;39382;47.168;16.008;2023-11-19T15:43:33;5.60;99.90